Time;durP1;ratioP1;P1;durP2;ratioP2;P2;SDS_P1;SDS_P2;PMS_P1;PMS_P2;Temp;Humidity;BMP_temperature;BMP_pressure;BME280_temperature;BME280_humidity;BME280_pressure;Samples;Min_cycle;Max_cycle;Signal;HPM_P1;HPM_P2
2023/07/19 00:00:41;;;;;;;8.63;6.30;;;20.40;99.90;;;;;;5035860;28;20535;-69
2023/07/19 00:03:07;;;;;;;7.87;7.07;;;20.30;99.90;;;;;;5035260;28;20164;-69
2023/07/19 00:05:33;;;;;;;6.37;5.60;;;20.30;99.90;;;;;;5035607;28;20191;-68
2023/07/19 00:07:58;;;;;;;7.17;5.50;;;20.30;99.90;;;;;;5035426;28;20531;-68
2023/07/19 00:10:24;;;;;;;6.67;5.97;;;20.40;99.90;;;;;;5035372;28;20738;-69
2023/07/19 00:12:50;;;;;;;8.00;7.00;;;20.50;99.90;;;;;;5035805;28;20179;-68
2023/07/19 00:15:16;;;;;;;7.40;5.90;;;20.40;99.90;;;;;;5035746;28;20213;-68
2023/07/19 00:17:44;;;;;;;7.73;6.97;;;20.50;99.90;;;;;;5033668;28;20274;-68
2023/07/19 00:20:10;;;;;;;6.77;5.97;;;20.40;99.90;;;;;;5034929;28;20481;-68
2023/07/19 00:22:36;;;;;;;7.20;6.53;;;20.60;99.90;;;;;;5034686;28;20786;-68
2023/07/19 00:25:01;;;;;;;7.47;6.43;;;20.70;99.90;;;;;;5035118;28;20501;-68
2023/07/19 00:27:27;;;;;;;7.50;6.70;;;20.70;99.90;;;;;;5031581;28;20167;-69
2023/07/19 00:32:44;;;;;;;6.40;5.80;;;20.80;99.90;;;;;;5032085;28;20201;-69
2023/07/19 00:35:10;;;;;;;7.40;6.70;;;20.90;99.90;;;;;;5036460;28;20425;-68
2023/07/19 00:37:36;;;;;;;7.60;6.33;;;20.90;99.90;;;;;;5036147;28;20845;-68
2023/07/19 00:40:02;;;;;;;6.90;6.17;;;21.00;99.90;;;;;;5035915;28;20502;-68
2023/07/19 00:42:29;;;;;;;7.77;6.40;;;20.90;99.90;;;;;;5034874;28;20508;-68
2023/07/19 00:44:55;;;;;;;7.30;6.60;;;20.80;99.90;;;;;;5034341;28;20425;-68
2023/07/19 00:47:20;;;;;;;7.33;6.50;;;20.80;99.90;;;;;;5034496;28;20398;-68
2023/07/19 00:49:46;;;;;;;9.13;6.20;;;20.60;99.90;;;;;;5034625;28;20258;-69
2023/07/19 00:52:12;;;;;;;7.27;6.57;;;20.40;99.90;;;;;;5034284;28;20167;-68
2023/07/19 00:54:38;;;;;;;7.83;7.13;;;20.50;99.90;;;;;;5034642;28;20437;-68
2023/07/19 00:57:05;;;;;;;8.40;6.33;;;20.50;99.90;;;;;;5034360;28;20188;-68
2023/07/19 00:59:31;;;;;;;8.63;7.27;;;20.50;99.90;;;;;;5032224;28;20160;-69
2023/07/19 01:01:56;;;;;;;8.27;6.37;;;20.40;99.90;;;;;;5034754;28;20459;-68
2023/07/19 01:04:24;;;;;;;11.83;7.20;;;20.40;99.90;;;;;;5034305;28;20505;-69
2023/07/19 01:06:50;;;;;;;8.10;7.30;;;20.40;99.90;;;;;;5034247;28;20160;-69
2023/07/19 01:09:15;;;;;;;10.27;6.93;;;20.40;99.90;;;;;;5032929;28;21026;-69
2023/07/19 01:11:41;;;;;;;8.27;6.23;;;20.50;99.90;;;;;;5034190;28;20206;-69
2023/07/19 01:14:07;;;;;;;8.50;7.53;;;20.40;99.90;;;;;;5034124;28;20199;-69
2023/07/19 01:16:33;;;;;;;6.73;6.00;;;20.40;99.90;;;;;;5034921;28;20236;-68
2023/07/19 01:18:59;;;;;;;9.63;6.90;;;20.30;99.90;;;;;;5035277;28;20413;-68
2023/07/19 01:21:25;;;;;;;7.90;6.63;;;20.20;99.90;;;;;;5034646;28;20811;-67
2023/07/19 01:23:50;;;;;;;7.40;6.10;;;20.20;99.90;;;;;;5034106;28;20168;-68
2023/07/19 01:26:16;;;;;;;8.90;6.50;;;20.20;99.90;;;;;;5033858;28;20229;-67
2023/07/19 01:28:42;;;;;;;7.17;6.47;;;20.40;99.90;;;;;;5029425;28;20179;-67
2023/07/19 01:31:11;;;;;;;8.63;6.33;;;20.50;99.90;;;;;;5033734;28;20812;-68
2023/07/19 01:33:37;;;;;;;9.50;7.00;;;20.40;99.90;;;;;;5033807;28;20174;-67
2023/07/19 01:36:03;;;;;;;7.80;5.97;;;20.40;99.90;;;;;;5031960;28;20458;-67
2023/07/19 01:38:28;;;;;;;8.37;7.10;;;20.30;99.90;;;;;;5033712;28;20210;-67
2023/07/19 01:40:54;;;;;;;7.10;6.40;;;20.30;99.90;;;;;;5033710;28;20546;-67
2023/07/19 01:43:20;;;;;;;7.77;6.60;;;20.20;99.90;;;;;;5033304;28;20224;-67
2023/07/19 01:45:46;;;;;;;8.77;6.77;;;20.30;99.90;;;;;;5032984;28;20198;-68
2023/07/19 01:48:11;;;;;;;7.60;6.00;;;20.40;99.90;;;;;;5032635;28;20254;-67
2023/07/19 01:50:37;;;;;;;7.03;6.30;;;20.20;99.90;;;;;;5033514;28;20506;-67
2023/07/19 01:53:03;;;;;;;7.90;6.60;;;20.20;99.90;;;;;;5032559;28;20171;-67
2023/07/19 01:55:28;;;;;;;7.07;6.20;;;20.10;99.90;;;;;;5033444;28;20520;-69
2023/07/19 01:57:54;;;;;;;7.03;6.33;;;20.10;99.90;;;;;;5031463;28;20191;-67
2023/07/19 02:00:19;;;;;;;10.00;7.40;;;20.00;99.90;;;;;;5031810;28;20159;-67
2023/07/19 02:02:45;;;;;;;7.97;5.83;;;20.10;99.90;;;;;;5033383;28;20599;-69
2023/07/19 02:05:10;;;;;;;7.77;6.77;;;20.20;99.90;;;;;;5033418;28;20682;-68
2023/07/19 02:07:36;;;;;;;7.30;6.50;;;20.20;99.90;;;;;;5033066;28;20198;-69
2023/07/19 02:10:03;;;;;;;6.50;5.87;;;20.20;99.90;;;;;;5033129;28;20646;-68
2023/07/19 02:12:28;;;;;;;6.90;5.90;;;20.10;99.90;;;;;;5033257;28;20167;-68
2023/07/19 02:14:54;;;;;;;9.00;6.27;;;20.00;99.90;;;;;;5032612;28;20497;-67
2023/07/19 02:17:20;;;;;;;7.50;5.57;;;19.90;99.90;;;;;;5032930;28;20593;-68
2023/07/19 02:19:46;;;;;;;8.63;5.33;;;19.90;99.90;;;;;;5033103;28;20390;-67
2023/07/19 02:22:12;;;;;;;7.50;6.73;;;19.80;99.90;;;;;;5033101;28;20888;-68
2023/07/19 02:24:37;;;;;;;9.30;6.63;;;19.80;99.90;;;;;;5031720;28;20249;-68
2023/07/19 02:27:03;;;;;;;7.63;5.97;;;19.70;99.90;;;;;;5032991;28;20171;-67
2023/07/19 02:29:29;;;;;;;6.33;5.60;;;19.60;99.90;;;;;;5028836;28;20182;-68
2023/07/19 02:31:55;;;;;;;6.60;5.53;;;19.60;99.90;;;;;;5032959;28;20567;-68
2023/07/19 02:34:20;;;;;;;7.37;5.50;;;19.40;99.90;;;;;;5025359;28;20606;-68
2023/07/19 02:36:49;;;;;;;7.57;6.03;;;19.60;99.90;;;;;;5032865;28;20533;-67
2023/07/19 02:39:15;;;;;;;5.70;5.20;;;19.60;99.90;;;;;;5032349;28;20155;-68
2023/07/19 02:41:41;;;;;;;6.70;5.23;;;19.60;99.90;;;;;;5033183;28;20421;-68
2023/07/19 02:44:07;;;;;;;4.90;4.50;;;19.60;99.90;;;;;;5032452;28;20493;-67
2023/07/19 02:46:32;;;;;;;8.17;6.77;;;19.50;99.90;;;;;;5024244;28;20195;-68
2023/07/19 02:48:58;;;;;;;5.63;5.13;;;19.40;99.90;;;;;;5032608;28;20250;-69
2023/07/19 02:51:23;;;;;;;8.40;5.73;;;19.30;99.90;;;;;;5032164;28;20172;-68
2023/07/19 02:53:49;;;;;;;5.47;4.77;;;19.30;99.90;;;;;;5032732;28;20711;-68
2023/07/19 02:56:15;;;;;;;8.33;5.67;;;19.10;99.90;;;;;;5032625;28;20748;-68
2023/07/19 02:58:41;;;;;;;5.50;4.97;;;19.30;99.90;;;;;;5028910;28;20493;-68
2023/07/19 03:01:07;;;;;;;5.30;4.80;;;19.40;99.90;;;;;;5032715;28;20170;-68
2023/07/19 03:03:33;;;;;;;5.53;5.03;;;19.40;99.90;;;;;;5032539;28;20406;-67
2023/07/19 03:05:58;;;;;;;5.60;4.80;;;19.30;99.90;;;;;;5032341;28;20179;-68
2023/07/19 03:08:24;;;;;;;6.03;5.50;;;19.30;99.90;;;;;;5032543;28;20171;-68
2023/07/19 03:10:56;;;;;;;6.87;5.60;;;19.30;99.90;;;;;;5032382;28;20178;-67
2023/07/19 03:13:21;;;;;;;6.40;4.90;;;19.10;99.90;;;;;;5032251;28;20657;-68
2023/07/19 03:15:47;;;;;;;6.80;4.40;;;19.20;99.90;;;;;;5031760;28;20449;-68
2023/07/19 03:18:13;;;;;;;7.50;5.20;;;19.00;99.90;;;;;;5032506;28;20170;-68
2023/07/19 03:20:39;;;;;;;7.40;4.97;;;19.10;99.90;;;;;;5032594;28;20414;-68
2023/07/19 03:23:04;;;;;;;6.97;6.30;;;19.20;99.90;;;;;;5032300;28;20398;-68
2023/07/19 03:25:30;;;;;;;5.60;5.00;;;19.10;99.90;;;;;;5032300;28;20237;-68
2023/07/19 03:27:56;;;;;;;6.03;5.30;;;19.00;99.90;;;;;;5030149;28;20167;-69
2023/07/19 03:30:22;;;;;;;6.10;5.40;;;18.90;99.90;;;;;;5030648;28;20163;-68
2023/07/19 03:32:48;;;;;;;6.30;5.30;;;18.80;99.90;;;;;;5032339;28;20168;-69
2023/07/19 03:35:14;;;;;;;6.50;4.80;;;18.90;99.90;;;;;;5032266;28;20187;-68
2023/07/19 03:37:44;;;;;;;7.03;6.30;;;18.90;99.90;;;;;;5032241;28;20440;-68
2023/07/19 03:40:11;;;;;;;5.77;5.27;;;18.80;99.90;;;;;;5032137;28;20402;-68
2023/07/19 03:42:36;;;;;;;7.60;6.60;;;18.90;99.90;;;;;;5032261;28;20410;-68
2023/07/19 03:45:03;;;;;;;6.50;5.80;;;19.00;99.90;;;;;;5031786;28;20479;-68
2023/07/19 03:47:28;;;;;;;5.93;5.17;;;19.10;99.90;;;;;;5032159;28;20174;-68
2023/07/19 03:49:54;;;;;;;5.47;4.97;;;19.00;99.90;;;;;;5032029;28;20403;-69
2023/07/19 03:52:19;;;;;;;6.77;5.60;;;19.00;99.90;;;;;;5033736;28;20256;-68
2023/07/19 03:54:45;;;;;;;8.83;6.50;;;19.00;99.90;;;;;;5035667;28;20198;-68
2023/07/19 03:57:10;;;;;;;8.17;6.60;;;19.00;99.90;;;;;;5035330;28;20191;-67
2023/07/19 03:59:36;;;;;;;7.07;5.97;;;19.10;99.90;;;;;;5032117;28;20614;-67
2023/07/19 04:02:02;;;;;;;7.20;5.77;;;19.10;99.90;;;;;;5035389;28;20649;-68
2023/07/19 04:04:27;;;;;;;6.90;6.27;;;19.10;99.90;;;;;;5035294;28;20225;-68
2023/07/19 04:06:53;;;;;;;8.63;6.00;;;19.20;99.90;;;;;;5035293;28;20267;-67
2023/07/19 04:09:18;;;;;;;6.13;5.53;;;19.20;99.90;;;;;;5035403;28;20653;-66
2023/07/19 04:11:44;;;;;;;7.00;6.30;;;19.10;99.90;;;;;;5035191;28;20711;-68
2023/07/19 04:14:09;;;;;;;5.77;5.17;;;19.10;99.90;;;;;;5035022;28;20171;-69
2023/07/19 04:16:36;;;;;;;6.80;5.70;;;19.10;99.90;;;;;;5035073;28;20211;-68
2023/07/19 04:19:01;;;;;;;5.23;4.40;;;19.10;99.90;;;;;;5035270;28;20649;-69
2023/07/19 04:21:27;;;;;;;5.87;5.27;;;19.10;99.90;;;;;;5034984;28;20403;-69
2023/07/19 04:23:52;;;;;;;6.80;6.20;;;19.20;99.90;;;;;;5035095;28;20644;-68
2023/07/19 04:26:18;;;;;;;6.53;5.93;;;19.20;99.90;;;;;;5027262;28;20211;-69
2023/07/19 04:28:43;;;;;;;6.10;5.40;;;19.10;99.90;;;;;;5032528;28;20570;-69
2023/07/19 04:31:09;;;;;;;7.40;5.47;;;19.20;99.90;;;;;;5034785;28;20189;-68
2023/07/19 04:33:34;;;;;;;6.70;6.03;;;19.40;99.90;;;;;;5034872;28;20637;-68
2023/07/19 04:36:09;;;;;;;7.83;6.50;;;19.50;99.90;;;;;;5034666;28;20629;-69
2023/07/19 04:38:35;;;;;;;5.00;4.60;;;19.50;99.90;;;;;;5035008;28;20523;-69
2023/07/19 04:41:04;;;;;;;6.17;5.50;;;19.50;99.90;;;;;;5034830;28;20407;-68
2023/07/19 04:43:30;;;;;;;6.60;5.50;;;19.60;99.90;;;;;;5034747;28;20198;-68
2023/07/19 04:45:55;;;;;;;6.97;5.17;;;19.60;99.90;;;;;;5033606;28;20845;-68
2023/07/19 04:48:21;;;;;;;6.57;5.00;;;19.60;99.90;;;;;;5031689;28;20418;-68
2023/07/19 04:50:52;;;;;;;7.10;5.30;;;19.50;99.90;;;;;;5034923;28;20176;-68
2023/07/19 04:53:18;;;;;;;6.50;4.93;;;19.60;99.90;;;;;;5034615;28;20170;-69
2023/07/19 04:55:44;;;;;;;5.60;4.90;;;19.70;99.90;;;;;;5034181;28;20932;-68
2023/07/19 04:58:09;;;;;;;5.47;4.97;;;19.80;99.90;;;;;;5034292;28;20197;-69
2023/07/19 05:00:35;;;;;;;6.40;5.50;;;19.80;99.90;;;;;;5032785;28;20406;-69
2023/07/19 05:03:00;;;;;;;6.67;5.60;;;19.80;99.90;;;;;;5031965;28;20516;-69
2023/07/19 05:05:26;;;;;;;6.00;5.40;;;19.80;99.90;;;;;;5034285;28;20188;-67
2023/07/19 05:07:51;;;;;;;5.97;5.40;;;19.90;99.90;;;;;;5034194;28;20183;-68
2023/07/19 05:10:17;;;;;;;6.73;6.13;;;20.00;99.90;;;;;;5034105;28;20182;-68
2023/07/19 05:12:43;;;;;;;9.60;5.47;;;20.00;99.90;;;;;;5034232;28;20662;-68
2023/07/19 05:15:09;;;;;;;5.60;4.97;;;20.00;99.90;;;;;;5034076;28;20242;-68
2023/07/19 05:17:34;;;;;;;6.87;5.73;;;20.00;99.90;;;;;;5033436;28;20195;-68
2023/07/19 05:20:00;;;;;;;7.10;5.83;;;20.10;99.90;;;;;;5034225;28;20940;-68
2023/07/19 05:22:26;;;;;;;5.43;4.93;;;20.20;99.90;;;;;;5034161;28;20279;-68
2023/07/19 05:24:51;;;;;;;6.00;4.80;;;20.40;99.90;;;;;;5034019;28;20203;-68
2023/07/19 05:27:17;;;;;;;7.90;5.43;;;20.50;99.90;;;;;;5034142;28;20171;-68
2023/07/19 05:29:43;;;;;;;7.50;4.87;;;20.60;99.90;;;;;;5033784;28;20179;-68
2023/07/19 05:32:09;;;;;;;6.73;4.93;;;20.70;99.90;;;;;;5030350;28;20582;-67
2023/07/19 05:34:35;;;;;;;6.53;4.23;;;20.80;99.90;;;;;;5033502;28;20422;-69
2023/07/19 05:37:03;;;;;;;5.43;4.50;;;20.90;99.90;;;;;;5033521;28;20652;-69
2023/07/19 05:39:29;;;;;;;5.43;4.97;;;21.00;99.90;;;;;;5033689;28;20406;-69
2023/07/19 05:41:54;;;;;;;6.90;5.10;;;21.20;99.90;;;;;;5033809;28;20456;-69
2023/07/19 05:44:20;;;;;;;6.60;5.60;;;21.30;99.90;;;;;;5031949;28;20175;-69
2023/07/19 05:46:45;;;;;;;6.37;4.93;;;21.50;99.90;;;;;;5031447;28;20357;-69
2023/07/19 05:49:11;;;;;;;5.63;5.00;;;21.50;99.90;;;;;;5033417;28;20180;-69
2023/07/19 05:51:37;;;;;;;6.50;4.27;;;21.70;99.90;;;;;;5033338;28;20229;-69
2023/07/19 05:54:04;;;;;;;5.50;4.10;;;21.80;99.90;;;;;;5033403;28;20203;-69
2023/07/19 05:56:30;;;;;;;5.93;5.03;;;22.00;99.90;;;;;;5033041;28;20191;-69
2023/07/19 05:58:55;;;;;;;5.47;4.97;;;22.10;99.90;;;;;;5033281;28;20398;-69
2023/07/19 06:01:21;;;;;;;5.83;4.47;;;22.20;99.90;;;;;;5030245;28;20221;-69
2023/07/19 06:03:47;;;;;;;6.23;5.47;;;22.30;99.90;;;;;;5031650;28;20178;-69
2023/07/19 06:06:14;;;;;;;7.53;4.83;;;22.30;99.90;;;;;;5033086;28;20195;-69
2023/07/19 06:08:40;;;;;;;7.40;4.60;;;22.30;99.90;;;;;;5033312;28;20197;-69
2023/07/19 06:11:06;;;;;;;11.27;5.30;;;22.40;99.90;;;;;;5033399;28;20398;-67
2023/07/19 06:13:32;;;;;;;6.87;5.30;;;22.50;99.90;;;;;;5033072;28;20405;-69
2023/07/19 06:15:57;;;;;;;9.80;5.30;;;22.50;99.90;;;;;;5056261;22;20859;-68
2023/07/19 06:18:23;;;;;;;7.30;4.70;;;22.50;99.90;;;;;;5032626;28;20171;-68
2023/07/19 06:20:49;;;;;;;5.67;4.43;;;22.60;99.90;;;;;;5033725;28;20179;-69
2023/07/19 06:23:14;;;;;;;6.83;5.53;;;22.80;99.90;;;;;;5032985;28;20206;-70
2023/07/19 06:25:40;;;;;;;8.87;5.50;;;22.90;99.90;;;;;;5032927;28;20195;-69
2023/07/19 06:28:06;;;;;;;6.57;4.73;;;23.10;99.90;;;;;;5032507;28;20179;-69
2023/07/19 06:30:31;;;;;;;8.93;4.70;;;23.30;99.90;;;;;;5031878;28;20254;-70
2023/07/19 06:32:57;;;;;;;6.67;4.70;;;23.40;99.90;;;;;;5033405;28;20247;-69
2023/07/19 06:35:23;;;;;;;5.10;4.60;;;23.30;99.90;;;;;;5032900;28;20191;-70
2023/07/19 06:37:48;;;;;;;5.20;4.60;;;23.40;99.90;;;;;;5032683;28;20191;-69
2023/07/19 06:40:15;;;;;;;5.53;4.43;;;23.50;99.90;;;;;;5031210;28;20196;-69
2023/07/19 06:42:42;;;;;;;4.90;3.83;;;23.60;99.90;;;;;;5033164;28;20297;-68
2023/07/19 06:45:08;;;;;;;5.97;4.50;;;23.70;99.90;;;;;;5032375;28;20808;-69
2023/07/19 06:47:34;;;;;;;6.50;4.27;;;23.90;99.90;;;;;;5032628;28;20415;-68
2023/07/19 06:50:00;;;;;;;7.07;4.40;;;23.80;99.90;;;;;;5032879;28;20935;-69
2023/07/19 06:52:26;;;;;;;5.60;4.93;;;23.80;99.90;;;;;;5032611;28;20404;-69
2023/07/19 06:54:51;;;;;;;5.27;4.60;;;23.70;99.90;;;;;;5033227;28;20217;-69
2023/07/19 06:57:19;;;;;;;5.80;4.40;;;23.70;99.90;;;;;;5030879;28;20860;-69
2023/07/19 06:59:44;;;;;;;6.57;3.83;;;23.90;99.90;;;;;;5031180;28;20258;-69
2023/07/19 07:02:10;;;;;;;6.70;4.67;;;24.00;99.90;;;;;;5033359;28;20474;-68
2023/07/19 07:04:35;;;;;;;5.90;5.10;;;24.00;99.90;;;;;;5033491;28;20226;-70
2023/07/19 07:07:01;;;;;;;6.53;4.60;;;24.10;99.90;;;;;;5035034;28;20221;-71
2023/07/19 07:09:27;;;;;;;7.83;5.10;;;24.20;99.90;;;;;;5033498;28;20658;-69
2023/07/19 07:11:53;;;;;;;6.00;4.10;;;24.30;99.90;;;;;;5033133;28;20164;-67
2023/07/19 07:14:18;;;;;;;8.10;4.20;;;24.40;99.90;;;;;;5031687;28;20535;-71
2023/07/19 07:16:44;;;;;;;5.90;5.07;;;24.70;99.90;;;;;;5033084;28;20219;-69
2023/07/19 07:19:10;;;;;;;9.87;5.60;;;24.80;99.90;;;;;;5031845;28;20653;-73
2023/07/19 07:21:45;;;;;;;7.53;5.60;;;24.60;99.90;;;;;;5032826;28;20175;-69
2023/07/19 07:24:10;;;;;;;7.07;4.70;;;24.70;99.90;;;;;;5031084;28;20386;-70
2023/07/19 07:26:36;;;;;;;5.30;4.07;;;24.80;99.90;;;;;;5034460;28;20540;-67
2023/07/19 07:29:03;;;;;;;6.07;4.00;;;24.60;99.90;;;;;;5034885;28;20646;-68
2023/07/19 07:31:30;;;;;;;6.80;3.83;;;24.80;99.90;;;;;;5036109;28;20181;-68
2023/07/19 07:33:55;;;;;;;5.70;4.20;;;24.80;99.90;;;;;;5035015;28;20436;-68
2023/07/19 07:36:22;;;;;;;7.40;3.97;;;24.80;99.90;;;;;;5035396;28;20461;-68
2023/07/19 07:38:48;;;;;;;6.07;3.50;;;24.90;99.90;;;;;;5036142;28;20221;-67
2023/07/19 07:41:13;;;;;;;5.83;3.50;;;25.00;99.90;;;;;;5036072;28;20406;-67
2023/07/19 07:43:40;;;;;;;4.93;3.20;;;25.00;99.90;;;;;;5036135;28;20538;-67
2023/07/19 07:46:05;;;;;;;3.77;2.70;;;25.20;99.90;;;;;;5035772;28;20585;-67
2023/07/19 07:48:32;;;;;;;5.33;3.00;;;25.20;99.60;;;;;;5035897;28;20416;-65
2023/07/19 07:50:58;;;;;;;4.90;2.57;;;25.20;98.90;;;;;;5031456;28;20163;-68
2023/07/19 07:53:23;;;;;;;5.30;2.87;;;25.30;99.10;;;;;;5035798;28;20978;-68
2023/07/19 07:55:49;;;;;;;4.20;2.60;;;25.40;98.30;;;;;;5035481;28;20712;-68
2023/07/19 07:58:14;;;;;;;6.00;2.60;;;25.50;96.90;;;;;;5035534;28;20184;-68
2023/07/19 08:00:41;;;;;;;6.37;2.47;;;25.50;97.10;;;;;;5035449;28;20167;-67
2023/07/19 08:03:06;;;;;;;3.27;2.57;;;25.60;96.20;;;;;;5035377;28;20639;-67
2023/07/19 08:05:32;;;;;;;4.30;3.07;;;25.60;96.30;;;;;;5034728;28;20521;-67
2023/07/19 08:07:58;;;;;;;3.03;2.13;;;25.60;95.20;;;;;;5035662;28;20286;-67
2023/07/19 08:10:24;;;;;;;4.57;2.07;;;25.70;94.50;;;;;;5035627;28;20729;-68
2023/07/19 08:12:49;;;;;;;5.43;2.40;;;25.70;94.10;;;;;;5035564;28;20179;-68
2023/07/19 08:15:15;;;;;;;2.40;2.00;;;25.90;93.40;;;;;;5035050;28;20226;-69
2023/07/19 08:17:41;;;;;;;5.60;2.33;;;25.90;92.80;;;;;;5035204;28;20187;-67
2023/07/19 08:20:09;;;;;;;2.93;2.23;;;26.00;92.50;;;;;;5034991;28;20214;-67
2023/07/19 08:22:35;;;;;;;3.57;2.10;;;26.20;91.50;;;;;;5035375;28;20202;-67
2023/07/19 08:25:01;;;;;;;5.80;2.20;;;26.30;91.60;;;;;;5035228;28;20845;-67
2023/07/19 08:27:27;;;;;;;3.73;1.87;;;26.30;90.80;;;;;;5033627;28;20438;-68
2023/07/19 08:29:52;;;;;;;3.53;2.00;;;26.40;90.20;;;;;;5033857;28;20171;-67
2023/07/19 08:32:18;;;;;;;4.13;2.43;;;26.40;90.30;;;;;;5035191;28;20678;-68
2023/07/19 08:34:44;;;;;;;2.30;1.80;;;26.30;87.20;;;;;;5034439;28;20175;-67
2023/07/19 08:37:10;;;;;;;3.40;2.30;;;26.30;87.30;;;;;;5033971;28;20591;-68
2023/07/19 08:39:35;;;;;;;7.23;2.43;;;26.30;86.90;;;;;;5034738;28;20160;-67
2023/07/19 08:42:02;;;;;;;6.50;2.50;;;26.50;86.80;;;;;;5034534;28;20601;-67
2023/07/19 08:44:28;;;;;;;4.27;2.30;;;26.50;84.30;;;;;;5034698;28;20246;-67
2023/07/19 08:46:55;;;;;;;2.50;1.70;;;26.60;84.90;;;;;;5034667;28;20464;-69
2023/07/19 08:49:21;;;;;;;2.33;2.10;;;26.70;83.90;;;;;;5034331;28;20932;-68
2023/07/19 08:51:47;;;;;;;2.10;1.90;;;26.70;84.50;;;;;;5034286;28;20414;-68
2023/07/19 08:54:13;;;;;;;4.83;1.90;;;26.70;83.20;;;;;;5034769;28;20402;-68
2023/07/19 08:56:39;;;;;;;3.90;1.90;;;26.80;82.00;;;;;;5034213;28;20550;-68
2023/07/19 08:59:08;;;;;;;2.97;1.80;;;26.90;80.60;;;;;;5034315;28;20406;-68
2023/07/19 09:01:34;;;;;;;3.30;2.27;;;26.90;78.70;;;;;;5034362;28;20429;-68
2023/07/19 09:04:00;;;;;;;3.93;2.00;;;26.80;78.80;;;;;;5034242;28;20398;-69
2023/07/19 09:06:28;;;;;;;5.80;2.40;;;26.90;79.80;;;;;;5033660;28;20279;-68
2023/07/19 09:08:55;;;;;;;2.63;2.20;;;26.80;80.00;;;;;;5033860;28;20253;-69
2023/07/19 09:11:24;;;;;;;2.40;1.80;;;27.00;81.60;;;;;;5034229;28;20416;-68
2023/07/19 09:13:54;;;;;;;6.93;2.27;;;27.00;78.30;;;;;;5030441;28;20776;-70
2023/07/19 09:16:31;;;;;;;6.27;1.97;;;27.10;77.50;;;;;;5033441;28;20469;-69
2023/07/19 09:18:57;;;;;;;4.10;1.90;;;27.10;77.00;;;;;;5032202;28;20430;-69
2023/07/19 09:21:37;;;;;;;3.10;2.23;;;27.10;75.90;;;;;;5033282;28;20793;-69
2023/07/19 09:24:04;;;;;;;4.20;2.70;;;27.10;75.60;;;;;;5033828;28;20430;-69
2023/07/19 09:26:47;;;;;;;2.80;1.97;;;26.90;76.20;;;;;;5033879;28;20787;-67
2023/07/19 09:29:13;;;;;;;2.40;1.93;;;27.10;75.70;;;;;;5033025;28;20449;-67
2023/07/19 09:31:53;;;;;;;4.40;1.80;;;27.20;74.50;;;;;;5033284;28;20430;-69
2023/07/19 09:34:26;;;;;;;4.13;1.93;;;27.20;73.20;;;;;;5033599;28;20651;-68
2023/07/19 09:36:53;;;;;;;2.33;1.97;;;27.30;74.10;;;;;;5033104;28;20460;-69
2023/07/19 09:39:19;;;;;;;5.17;2.00;;;27.40;72.00;;;;;;5032183;28;20402;-70
2023/07/19 09:41:45;;;;;;;3.77;1.70;;;27.50;71.60;;;;;;5029370;28;20402;-68
2023/07/19 09:44:13;;;;;;;2.87;2.27;;;27.50;69.00;;;;;;5033504;28;20402;-68
2023/07/19 09:46:39;;;;;;;2.30;2.00;;;27.50;71.60;;;;;;5033141;28;20571;-67
2023/07/19 09:49:05;;;;;;;3.00;1.87;;;27.60;70.70;;;;;;5033492;28;20402;-68
2023/07/19 09:51:34;;;;;;;2.83;1.97;;;27.60;69.90;;;;;;5032887;28;20171;-67
2023/07/19 09:54:03;;;;;;;3.57;2.07;;;27.60;71.80;;;;;;5033122;28;20904;-68
2023/07/19 09:56:28;;;;;;;2.23;2.03;;;27.80;71.80;;;;;;5032893;28;20503;-67
2023/07/19 09:58:55;;;;;;;6.27;2.00;;;28.00;68.20;;;;;;5033043;28;20506;-73
2023/07/19 10:01:22;;;;;;;2.30;1.80;;;28.00;68.50;;;;;;5033031;28;20167;-71
2023/07/19 10:03:48;;;;;;;3.37;2.20;;;27.80;67.70;;;;;;5033214;28;20432;-68
2023/07/19 10:06:17;;;;;;;2.97;1.70;;;27.80;67.60;;;;;;5032262;28;20422;-68
2023/07/19 10:08:42;;;;;;;4.30;2.00;;;27.80;68.40;;;;;;5028962;28;20168;-67
2023/07/19 10:11:21;;;;;;;2.20;2.00;;;27.90;67.50;;;;;;5033132;28;20485;-68
2023/07/19 10:13:56;;;;;;;3.27;1.93;;;28.00;68.20;;;;;;5032829;28;20183;-67
2023/07/19 10:16:34;;;;;;;2.80;2.00;;;28.20;67.30;;;;;;5032433;28;20465;-68
2023/07/19 10:19:13;;;;;;;2.17;1.97;;;28.20;68.20;;;;;;5031535;28;20744;-67
2023/07/19 10:22:01;;;;;;;2.83;1.83;;;28.20;68.80;;;;;;5027184;28;20501;-68
2023/07/19 10:24:27;;;;;;;3.37;2.20;;;28.40;68.70;;;;;;5030494;28;20805;-69
2023/07/19 10:26:52;;;;;;;2.13;1.87;;;28.60;68.80;;;;;;5032429;28;20441;-68
2023/07/19 10:29:18;;;;;;;4.57;2.40;;;28.60;68.10;;;;;;5031437;28;20648;-70
2023/07/19 10:31:43;;;;;;;2.60;1.77;;;28.70;68.20;;;;;;5032776;28;20179;-71
2023/07/19 10:34:09;;;;;;;3.40;2.00;;;28.50;71.50;;;;;;5032361;28;20246;-71
2023/07/19 10:36:47;;;;;;;4.20;2.30;;;28.80;68.50;;;;;;5031510;28;20253;-71
2023/07/19 10:39:13;;;;;;;3.73;2.27;;;28.90;69.30;;;;;;5032898;28;20206;-68
2023/07/19 10:41:38;;;;;;;3.30;2.23;;;29.20;69.40;;;;;;5032344;28;20433;-68
2023/07/19 10:44:04;;;;;;;2.37;2.10;;;29.40;67.90;;;;;;5032010;28;20167;-68
2023/07/19 10:46:30;;;;;;;3.60;2.63;;;29.50;66.50;;;;;;5032233;28;20567;-68
2023/07/19 10:48:55;;;;;;;3.27;2.23;;;29.30;68.40;;;;;;5032499;28;20169;-67
2023/07/19 10:51:24;;;;;;;6.67;2.40;;;29.50;68.10;;;;;;5032271;28;20176;-68
2023/07/19 10:53:56;;;;;;;3.07;1.90;;;29.40;68.00;;;;;;5032356;28;20210;-69
2023/07/19 10:56:22;;;;;;;2.60;1.80;;;29.60;67.10;;;;;;5028498;28;20572;-68
2023/07/19 10:58:48;;;;;;;5.00;2.17;;;30.20;67.90;;;;;;5032170;28;21124;-67
2023/07/19 11:01:15;;;;;;;3.20;2.03;;;30.70;65.50;;;;;;5033855;28;20176;-69
2023/07/19 11:03:45;;;;;;;3.90;2.30;;;31.00;64.70;;;;;;5036557;28;20402;-69
2023/07/19 11:06:10;;;;;;;2.10;1.57;;;30.80;63.80;;;;;;5032173;28;20986;-68
2023/07/19 11:08:36;;;;;;;5.80;2.30;;;30.80;62.90;;;;;;5035941;28;20410;-67
2023/07/19 11:11:02;;;;;;;5.40;2.70;;;30.70;63.30;;;;;;5035216;28;20626;-68
2023/07/19 11:13:28;;;;;;;2.43;1.90;;;30.60;63.60;;;;;;5036012;28;20702;-68
2023/07/19 11:15:58;;;;;;;4.10;1.97;;;30.90;64.10;;;;;;5035714;28;20199;-68
2023/07/19 11:18:23;;;;;;;4.53;2.50;;;30.90;63.40;;;;;;5035951;28;20720;-68
2023/07/19 11:20:49;;;;;;;4.43;2.47;;;30.90;63.10;;;;;;5035688;28;20412;-68
2023/07/19 11:23:15;;;;;;;7.20;2.53;;;31.10;63.90;;;;;;5034418;28;20553;-67
2023/07/19 11:25:41;;;;;;;3.23;2.03;;;31.10;61.90;;;;;;5035631;28;20576;-67
2023/07/19 11:28:07;;;;;;;4.13;2.40;;;31.00;63.20;;;;;;5035873;28;20437;-68
2023/07/19 11:30:40;;;;;;;4.30;2.33;;;30.90;60.90;;;;;;5034541;28;20472;-68
2023/07/19 11:33:08;;;;;;;3.67;2.30;;;31.20;62.10;;;;;;5032034;28;20156;-68
2023/07/19 11:35:34;;;;;;;3.20;1.87;;;31.40;62.40;;;;;;5035864;28;20507;-68
2023/07/19 11:37:59;;;;;;;4.67;2.13;;;31.20;60.60;;;;;;5033793;28;20450;-68
2023/07/19 11:40:25;;;;;;;4.40;2.20;;;31.30;60.50;;;;;;5035544;28;20183;-68
2023/07/19 11:42:56;;;;;;;3.87;2.30;;;31.60;61.30;;;;;;5035425;28;20218;-68
2023/07/19 11:45:27;;;;;;;4.87;2.30;;;31.30;60.40;;;;;;5035193;28;20190;-68
2023/07/19 11:47:58;;;;;;;4.97;2.40;;;31.50;59.20;;;;;;5035433;28;20493;-68
2023/07/19 11:50:24;;;;;;;4.83;2.90;;;31.60;61.00;;;;;;5035448;28;20410;-68
2023/07/19 11:52:54;;;;;;;5.13;2.67;;;31.40;59.40;;;;;;5035522;28;20900;-68
2023/07/19 11:55:21;;;;;;;4.80;2.93;;;32.60;62.10;;;;;;5031096;28;20941;-68
2023/07/19 11:57:49;;;;;;;5.00;2.90;;;32.70;57.20;;;;;;5035441;28;20514;-68
2023/07/19 12:00:16;;;;;;;2.90;2.60;;;32.70;58.70;;;;;;5034582;28;20948;-68
2023/07/19 12:02:46;;;;;;;6.57;2.70;;;32.00;58.80;;;;;;5035360;28;20417;-67
2023/07/19 12:05:14;;;;;;;7.30;2.83;;;31.70;59.30;;;;;;5031349;28;20804;-69
2023/07/19 12:07:40;;;;;;;7.70;3.47;;;31.70;58.60;;;;;;5034880;28;20421;-69
2023/07/19 12:10:06;;;;;;;5.50;2.53;;;31.90;58.30;;;;;;5035331;28;20406;-67
2023/07/19 12:12:32;;;;;;;3.60;2.60;;;33.50;58.30;;;;;;5033976;28;20838;-67
2023/07/19 12:15:00;;;;;;;5.03;2.30;;;34.40;54.70;;;;;;5034321;28;20426;-67
2023/07/19 12:17:26;;;;;;;3.13;2.23;;;35.30;54.00;;;;;;5064596;22;20273;-71
2023/07/19 12:19:53;;;;;;;2.50;2.10;;;36.00;52.90;;;;;;5054875;28;20493;-71
2023/07/19 12:22:19;;;;;;;4.63;2.40;;;37.60;49.40;;;;;;5054990;28;20167;-71
2023/07/19 12:24:44;;;;;;;2.50;2.03;;;36.30;48.60;;;;;;5054917;28;20471;-75
2023/07/19 12:27:10;;;;;;;2.97;1.93;;;34.80;51.00;;;;;;5048534;28;20187;-75
2023/07/19 12:29:35;;;;;;;2.73;2.30;;;35.20;52.30;;;;;;5043196;28;20177;-75
2023/07/19 12:32:03;;;;;;;3.83;2.50;;;35.10;50.60;;;;;;5045588;28;20171;-69
2023/07/19 12:34:29;;;;;;;4.07;2.47;;;34.80;50.70;;;;;;5038657;28;20638;-70
2023/07/19 12:36:55;;;;;;;8.53;2.67;;;34.80;52.70;;;;;;5044028;28;20580;-69
2023/07/19 12:39:24;;;;;;;4.83;3.40;;;35.40;51.60;;;;;;5043155;28;20178;-70
2023/07/19 12:41:52;;;;;;;4.87;3.20;;;35.50;50.50;;;;;;5045021;28;20254;-70
2023/07/19 12:44:24;;;;;;;4.67;2.67;;;36.30;48.60;;;;;;5044470;28;20405;-74